sensor_id;sensor_type;location;lat;lon;timestamp;P1;durP1;ratioP1;P2;durP2;ratioP2
75025;SDS011;63591;50.080;8.286;2022-11-14T00:00:25;44.00;;;18.67;;
75025;SDS011;63591;50.080;8.286;2022-11-14T00:02:51;34.15;;;17.42;;
75025;SDS011;63591;50.080;8.286;2022-11-14T00:05:16;35.63;;;16.90;;
75025;SDS011;63591;50.080;8.286;2022-11-14T00:07:42;33.00;;;16.45;;
75025;SDS011;63591;50.080;8.286;2022-11-14T00:10:07;34.53;;;18.17;;
75025;SDS011;63591;50.080;8.286;2022-11-14T00:12:33;40.97;;;20.17;;
75025;SDS011;63591;50.080;8.286;2022-11-14T00:14:58;43.77;;;21.07;;
75025;SDS011;63591;50.080;8.286;2022-11-14T00:17:23;52.38;;;26.05;;
75025;SDS011;63591;50.080;8.286;2022-11-14T00:19:49;51.93;;;24.33;;
75025;SDS011;63591;50.080;8.286;2022-11-14T00:22:14;49.80;;;23.43;;
75025;SDS011;63591;50.080;8.286;2022-11-14T00:24:39;45.97;;;21.83;;
75025;SDS011;63591;50.080;8.286;2022-11-14T00:27:05;48.17;;;23.90;;
75025;SDS011;63591;50.080;8.286;2022-11-14T00:29:30;66.00;;;29.43;;
75025;SDS011;63591;50.080;8.286;2022-11-14T00:31:55;51.73;;;25.03;;
75025;SDS011;63591;50.080;8.286;2022-11-14T00:34:21;52.45;;;24.65;;
75025;SDS011;63591;50.080;8.286;2022-11-14T00:36:46;54.75;;;26.00;;
75025;SDS011;63591;50.080;8.286;2022-11-14T00:39:12;49.27;;;23.73;;
75025;SDS011;63591;50.080;8.286;2022-11-14T00:41:38;55.78;;;27.27;;
75025;SDS011;63591;50.080;8.286;2022-11-14T00:44:04;47.20;;;25.85;;
75025;SDS011;63591;50.080;8.286;2022-11-14T00:46:29;53.93;;;24.60;;
75025;SDS011;63591;50.080;8.286;2022-11-14T00:48:55;48.87;;;23.80;;
75025;SDS011;63591;50.080;8.286;2022-11-14T00:51:20;45.35;;;24.50;;
75025;SDS011;63591;50.080;8.286;2022-11-14T00:53:45;54.13;;;25.53;;
75025;SDS011;63591;50.080;8.286;2022-11-14T00:56:11;50.33;;;25.03;;
75025;SDS011;63591;50.080;8.286;2022-11-14T00:58:36;46.40;;;23.67;;
75025;SDS011;63591;50.080;8.286;2022-11-14T01:01:01;48.83;;;24.03;;
75025;SDS011;63591;50.080;8.286;2022-11-14T01:03:27;43.53;;;23.00;;
75025;SDS011;63591;50.080;8.286;2022-11-14T01:05:52;40.70;;;21.63;;
75025;SDS011;63591;50.080;8.286;2022-11-14T01:08:17;43.10;;;21.73;;
75025;SDS011;63591;50.080;8.286;2022-11-14T01:10:45;37.95;;;20.05;;
75025;SDS011;63591;50.080;8.286;2022-11-14T01:13:12;37.10;;;20.02;;
75025;SDS011;63591;50.080;8.286;2022-11-14T01:15:41;39.03;;;19.02;;
75025;SDS011;63591;50.080;8.286;2022-11-14T01:18:09;36.55;;;18.25;;
75025;SDS011;63591;50.080;8.286;2022-11-14T01:20:39;37.17;;;17.97;;
75025;SDS011;63591;50.080;8.286;2022-11-14T01:23:06;33.22;;;17.38;;
75025;SDS011;63591;50.080;8.286;2022-11-14T01:25:33;32.60;;;16.60;;
75025;SDS011;63591;50.080;8.286;2022-11-14T01:27:59;33.38;;;16.33;;
75025;SDS011;63591;50.080;8.286;2022-11-14T01:30:24;29.50;;;15.73;;
75025;SDS011;63591;50.080;8.286;2022-11-14T01:32:49;29.60;;;15.33;;
75025;SDS011;63591;50.080;8.286;2022-11-14T01:35:14;29.00;;;15.07;;
75025;SDS011;63591;50.080;8.286;2022-11-14T01:37:40;27.00;;;13.97;;
75025;SDS011;63591;50.080;8.286;2022-11-14T01:40:05;24.57;;;14.53;;
75025;SDS011;63591;50.080;8.286;2022-11-14T01:42:31;26.48;;;14.85;;
75025;SDS011;63591;50.080;8.286;2022-11-14T01:44:57;26.40;;;14.20;;
75025;SDS011;63591;50.080;8.286;2022-11-14T01:47:23;25.53;;;14.00;;
75025;SDS011;63591;50.080;8.286;2022-11-14T01:49:53;26.00;;;13.38;;
75025;SDS011;63591;50.080;8.286;2022-11-14T01:52:32;26.33;;;14.02;;
75025;SDS011;63591;50.080;8.286;2022-11-14T01:55:04;23.92;;;13.52;;
75025;SDS011;63591;50.080;8.286;2022-11-14T01:57:32;23.55;;;12.90;;
75025;SDS011;63591;50.080;8.286;2022-11-14T02:00:03;24.07;;;13.43;;
75025;SDS011;63591;50.080;8.286;2022-11-14T02:02:31;23.80;;;12.90;;
75025;SDS011;63591;50.080;8.286;2022-11-14T02:05:01;22.67;;;13.00;;
75025;SDS011;63591;50.080;8.286;2022-11-14T02:07:31;19.02;;;11.90;;
75025;SDS011;63591;50.080;8.286;2022-11-14T02:10:00;21.40;;;12.00;;
75025;SDS011;63591;50.080;8.286;2022-11-14T02:12:30;23.83;;;12.55;;
75025;SDS011;63591;50.080;8.286;2022-11-14T02:14:55;24.52;;;12.23;;
75025;SDS011;63591;50.080;8.286;2022-11-14T02:17:23;21.63;;;11.87;;
75025;SDS011;63591;50.080;8.286;2022-11-14T02:19:50;19.88;;;12.10;;
75025;SDS011;63591;50.080;8.286;2022-11-14T02:22:22;20.88;;;11.40;;
75025;SDS011;63591;50.080;8.286;2022-11-14T02:24:48;19.73;;;11.30;;
75025;SDS011;63591;50.080;8.286;2022-11-14T02:27:13;19.23;;;10.63;;
75025;SDS011;63591;50.080;8.286;2022-11-14T02:29:40;18.73;;;10.82;;
75025;SDS011;63591;50.080;8.286;2022-11-14T02:32:05;17.53;;;10.70;;
75025;SDS011;63591;50.080;8.286;2022-11-14T02:34:31;17.30;;;10.23;;
75025;SDS011;63591;50.080;8.286;2022-11-14T02:36:56;19.13;;;10.70;;
75025;SDS011;63591;50.080;8.286;2022-11-14T02:39:21;17.83;;;9.70;;
75025;SDS011;63591;50.080;8.286;2022-11-14T02:41:48;16.30;;;9.57;;
75025;SDS011;63591;50.080;8.286;2022-11-14T02:44:14;15.55;;;8.60;;
75025;SDS011;63591;50.080;8.286;2022-11-14T02:46:39;15.73;;;9.20;;
75025;SDS011;63591;50.080;8.286;2022-11-14T02:49:05;15.47;;;8.87;;
75025;SDS011;63591;50.080;8.286;2022-11-14T02:51:30;12.07;;;8.13;;
75025;SDS011;63591;50.080;8.286;2022-11-14T02:53:55;14.68;;;8.55;;
75025;SDS011;63591;50.080;8.286;2022-11-14T02:56:20;13.77;;;7.90;;
75025;SDS011;63591;50.080;8.286;2022-11-14T02:58:46;13.23;;;7.77;;
75025;SDS011;63591;50.080;8.286;2022-11-14T03:01:11;12.63;;;7.53;;
75025;SDS011;63591;50.080;8.286;2022-11-14T03:03:36;13.07;;;7.70;;
75025;SDS011;63591;50.080;8.286;2022-11-14T03:06:02;12.17;;;6.93;;
75025;SDS011;63591;50.080;8.286;2022-11-14T03:08:28;11.65;;;7.35;;
75025;SDS011;63591;50.080;8.286;2022-11-14T03:10:54;10.60;;;6.97;;
75025;SDS011;63591;50.080;8.286;2022-11-14T03:13:20;11.55;;;6.88;;
75025;SDS011;63591;50.080;8.286;2022-11-14T03:15:45;10.73;;;6.47;;
75025;SDS011;63591;50.080;8.286;2022-11-14T03:18:11;10.75;;;6.40;;
75025;SDS011;63591;50.080;8.286;2022-11-14T03:20:37;11.48;;;7.05;;
75025;SDS011;63591;50.080;8.286;2022-11-14T03:23:03;10.32;;;6.80;;
75025;SDS011;63591;50.080;8.286;2022-11-14T03:25:28;10.77;;;6.20;;
75025;SDS011;63591;50.080;8.286;2022-11-14T03:27:53;9.87;;;6.30;;
75025;SDS011;63591;50.080;8.286;2022-11-14T03:30:19;9.77;;;6.17;;
75025;SDS011;63591;50.080;8.286;2022-11-14T03:32:44;9.20;;;5.87;;
75025;SDS011;63591;50.080;8.286;2022-11-14T03:35:09;9.77;;;5.88;;
75025;SDS011;63591;50.080;8.286;2022-11-14T03:37:35;8.57;;;5.30;;
75025;SDS011;63591;50.080;8.286;2022-11-14T03:40:00;10.23;;;5.60;;
75025;SDS011;63591;50.080;8.286;2022-11-14T03:42:26;10.27;;;6.43;;
75025;SDS011;63591;50.080;8.286;2022-11-14T03:44:51;10.52;;;6.32;;
75025;SDS011;63591;50.080;8.286;2022-11-14T03:47:16;8.77;;;5.47;;
75025;SDS011;63591;50.080;8.286;2022-11-14T03:49:42;9.13;;;5.87;;
75025;SDS011;63591;50.080;8.286;2022-11-14T03:52:09;9.48;;;5.85;;
75025;SDS011;63591;50.080;8.286;2022-11-14T03:54:35;8.87;;;5.87;;
75025;SDS011;63591;50.080;8.286;2022-11-14T03:57:00;9.23;;;5.95;;
75025;SDS011;63591;50.080;8.286;2022-11-14T03:59:25;9.27;;;5.63;;
75025;SDS011;63591;50.080;8.286;2022-11-14T04:01:51;9.70;;;5.90;;
75025;SDS011;63591;50.080;8.286;2022-11-14T04:04:16;9.13;;;6.00;;
75025;SDS011;63591;50.080;8.286;2022-11-14T04:06:41;10.03;;;5.97;;
75025;SDS011;63591;50.080;8.286;2022-11-14T04:09:08;10.47;;;6.23;;
75025;SDS011;63591;50.080;8.286;2022-11-14T04:11:34;9.48;;;6.05;;
75025;SDS011;63591;50.080;8.286;2022-11-14T04:13:59;9.60;;;5.87;;
75025;SDS011;63591;50.080;8.286;2022-11-14T04:16:24;8.90;;;5.90;;
75025;SDS011;63591;50.080;8.286;2022-11-14T04:18:50;9.90;;;6.17;;
75025;SDS011;63591;50.080;8.286;2022-11-14T04:21:15;9.17;;;6.00;;
75025;SDS011;63591;50.080;8.286;2022-11-14T04:23:40;9.30;;;5.73;;
75025;SDS011;63591;50.080;8.286;2022-11-14T04:26:05;10.00;;;6.20;;
75025;SDS011;63591;50.080;8.286;2022-11-14T04:28:31;9.73;;;5.97;;
75025;SDS011;63591;50.080;8.286;2022-11-14T04:30:56;9.68;;;6.30;;
75025;SDS011;63591;50.080;8.286;2022-11-14T04:33:21;8.80;;;5.85;;
75025;SDS011;63591;50.080;8.286;2022-11-14T04:35:47;8.87;;;5.57;;
75025;SDS011;63591;50.080;8.286;2022-11-14T04:38:12;9.00;;;5.90;;
75025;SDS011;63591;50.080;8.286;2022-11-14T04:40:37;9.40;;;5.90;;
75025;SDS011;63591;50.080;8.286;2022-11-14T04:43:03;9.57;;;6.40;;
75025;SDS011;63591;50.080;8.286;2022-11-14T04:45:28;9.57;;;5.90;;
75025;SDS011;63591;50.080;8.286;2022-11-14T04:47:53;9.60;;;6.10;;
75025;SDS011;63591;50.080;8.286;2022-11-14T04:50:18;10.87;;;6.70;;
75025;SDS011;63591;50.080;8.286;2022-11-14T04:52:44;9.95;;;6.43;;
75025;SDS011;63591;50.080;8.286;2022-11-14T04:55:09;10.48;;;6.50;;
75025;SDS011;63591;50.080;8.286;2022-11-14T04:57:35;10.03;;;6.13;;
75025;SDS011;63591;50.080;8.286;2022-11-14T05:00:00;9.80;;;6.13;;
75025;SDS011;63591;50.080;8.286;2022-11-14T05:02:25;12.07;;;6.80;;
75025;SDS011;63591;50.080;8.286;2022-11-14T05:04:51;10.00;;;6.10;;
75025;SDS011;63591;50.080;8.286;2022-11-14T05:07:16;11.63;;;7.00;;
75025;SDS011;63591;50.080;8.286;2022-11-14T05:09:41;11.30;;;6.93;;
75025;SDS011;63591;50.080;8.286;2022-11-14T05:12:07;10.90;;;6.47;;
75025;SDS011;63591;50.080;8.286;2022-11-14T05:14:32;10.32;;;6.45;;
75025;SDS011;63591;50.080;8.286;2022-11-14T05:16:57;10.20;;;6.53;;
75025;SDS011;63591;50.080;8.286;2022-11-14T05:19:23;10.00;;;6.33;;
75025;SDS011;63591;50.080;8.286;2022-11-14T05:21:48;10.07;;;6.17;;
75025;SDS011;63591;50.080;8.286;2022-11-14T05:24:14;11.32;;;6.75;;
75025;SDS011;63591;50.080;8.286;2022-11-14T05:26:39;10.60;;;6.70;;
75025;SDS011;63591;50.080;8.286;2022-11-14T05:29:05;12.87;;;6.87;;
75025;SDS011;63591;50.080;8.286;2022-11-14T05:31:30;11.57;;;6.88;;
75025;SDS011;63591;50.080;8.286;2022-11-14T05:33:55;10.30;;;6.47;;
75025;SDS011;63591;50.080;8.286;2022-11-14T05:36:21;9.70;;;6.57;;
75025;SDS011;63591;50.080;8.286;2022-11-14T05:38:46;11.03;;;6.67;;
75025;SDS011;63591;50.080;8.286;2022-11-14T05:41:15;10.07;;;5.87;;
75025;SDS011;63591;50.080;8.286;2022-11-14T05:43:42;10.85;;;6.60;;
75025;SDS011;63591;50.080;8.286;2022-11-14T05:46:09;11.80;;;6.00;;
75025;SDS011;63591;50.080;8.286;2022-11-14T05:48:36;10.70;;;6.15;;
75025;SDS011;63591;50.080;8.286;2022-11-14T05:51:02;10.00;;;6.00;;
75025;SDS011;63591;50.080;8.286;2022-11-14T05:53:29;9.95;;;6.35;;
75025;SDS011;63591;50.080;8.286;2022-11-14T05:55:58;9.37;;;6.00;;
75025;SDS011;63591;50.080;8.286;2022-11-14T05:58:24;10.05;;;6.15;;
75025;SDS011;63591;50.080;8.286;2022-11-14T06:00:49;10.07;;;6.53;;
75025;SDS011;63591;50.080;8.286;2022-11-14T06:03:15;11.37;;;6.60;;
75025;SDS011;63591;50.080;8.286;2022-11-14T06:05:40;9.57;;;5.87;;
75025;SDS011;63591;50.080;8.286;2022-11-14T06:08:05;9.32;;;6.32;;
75025;SDS011;63591;50.080;8.286;2022-11-14T06:10:31;9.63;;;5.97;;
75025;SDS011;63591;50.080;8.286;2022-11-14T06:12:59;10.55;;;6.13;;
75025;SDS011;63591;50.080;8.286;2022-11-14T06:15:24;10.20;;;6.28;;
75025;SDS011;63591;50.080;8.286;2022-11-14T06:17:51;10.43;;;6.63;;
75025;SDS011;63591;50.080;8.286;2022-11-14T06:20:17;10.63;;;6.47;;
75025;SDS011;63591;50.080;8.286;2022-11-14T06:22:43;10.55;;;6.22;;
75025;SDS011;63591;50.080;8.286;2022-11-14T06:25:08;12.13;;;7.10;;
75025;SDS011;63591;50.080;8.286;2022-11-14T06:27:34;10.30;;;6.53;;
75025;SDS011;63591;50.080;8.286;2022-11-14T06:29:59;11.70;;;7.57;;
75025;SDS011;63591;50.080;8.286;2022-11-14T06:32:24;11.87;;;6.93;;
75025;SDS011;63591;50.080;8.286;2022-11-14T06:34:50;13.10;;;7.38;;
75025;SDS011;63591;50.080;8.286;2022-11-14T06:37:15;11.45;;;7.07;;
75025;SDS011;63591;50.080;8.286;2022-11-14T06:39:40;10.93;;;6.60;;
75025;SDS011;63591;50.080;8.286;2022-11-14T06:42:05;12.17;;;7.80;;
75025;SDS011;63591;50.080;8.286;2022-11-14T06:44:31;12.43;;;7.17;;
75025;SDS011;63591;50.080;8.286;2022-11-14T06:46:56;12.20;;;7.07;;
75025;SDS011;63591;50.080;8.286;2022-11-14T06:49:22;10.93;;;7.10;;
75025;SDS011;63591;50.080;8.286;2022-11-14T06:51:49;11.82;;;7.65;;
75025;SDS011;63591;50.080;8.286;2022-11-14T06:54:14;11.95;;;7.47;;
75025;SDS011;63591;50.080;8.286;2022-11-14T06:56:40;13.03;;;7.80;;
75025;SDS011;63591;50.080;8.286;2022-11-14T06:59:05;12.23;;;7.90;;
75025;SDS011;63591;50.080;8.286;2022-11-14T07:01:30;13.67;;;8.30;;
75025;SDS011;63591;50.080;8.286;2022-11-14T07:03:56;13.67;;;8.23;;
75025;SDS011;63591;50.080;8.286;2022-11-14T07:06:25;15.02;;;8.20;;
75025;SDS011;63591;50.080;8.286;2022-11-14T07:08:52;13.30;;;8.32;;
75025;SDS011;63591;50.080;8.286;2022-11-14T07:11:20;13.35;;;8.57;;
75025;SDS011;63591;50.080;8.286;2022-11-14T07:13:50;13.85;;;8.90;;
75025;SDS011;63591;50.080;8.286;2022-11-14T07:16:25;14.60;;;8.50;;
75025;SDS011;63591;50.080;8.286;2022-11-14T07:18:55;13.90;;;8.57;;
75025;SDS011;63591;50.080;8.286;2022-11-14T07:21:21;14.02;;;8.07;;
75025;SDS011;63591;50.080;8.286;2022-11-14T07:23:47;14.35;;;8.70;;
75025;SDS011;63591;50.080;8.286;2022-11-14T07:26:13;14.15;;;8.48;;
75025;SDS011;63591;50.080;8.286;2022-11-14T07:28:39;15.00;;;8.33;;
75025;SDS011;63591;50.080;8.286;2022-11-14T07:31:11;13.32;;;8.82;;
75025;SDS011;63591;50.080;8.286;2022-11-14T07:33:38;13.67;;;8.40;;
75025;SDS011;63591;50.080;8.286;2022-11-14T07:36:04;13.95;;;8.77;;
75025;SDS011;63591;50.080;8.286;2022-11-14T07:38:31;12.77;;;8.52;;
75025;SDS011;63591;50.080;8.286;2022-11-14T07:41:15;13.95;;;8.68;;
75025;SDS011;63591;50.080;8.286;2022-11-14T07:43:41;15.23;;;8.95;;
75025;SDS011;63591;50.080;8.286;2022-11-14T07:46:10;15.80;;;9.50;;
75025;SDS011;63591;50.080;8.286;2022-11-14T07:48:37;14.35;;;8.80;;
75025;SDS011;63591;50.080;8.286;2022-11-14T07:51:04;14.50;;;9.13;;
75025;SDS011;63591;50.080;8.286;2022-11-14T07:53:31;15.30;;;8.70;;
75025;SDS011;63591;50.080;8.286;2022-11-14T07:56:02;17.00;;;9.38;;
75025;SDS011;63591;50.080;8.286;2022-11-14T07:58:29;14.95;;;9.25;;
75025;SDS011;63591;50.080;8.286;2022-11-14T08:00:55;14.30;;;8.43;;
75025;SDS011;63591;50.080;8.286;2022-11-14T08:03:24;14.55;;;8.73;;
75025;SDS011;63591;50.080;8.286;2022-11-14T08:05:49;14.13;;;8.10;;
75025;SDS011;63591;50.080;8.286;2022-11-14T08:08:14;13.97;;;8.57;;
75025;SDS011;63591;50.080;8.286;2022-11-14T08:10:39;13.93;;;8.70;;
75025;SDS011;63591;50.080;8.286;2022-11-14T08:13:05;15.07;;;8.87;;
75025;SDS011;63591;50.080;8.286;2022-11-14T08:15:32;14.63;;;9.20;;
75025;SDS011;63591;50.080;8.286;2022-11-14T08:17:58;14.50;;;9.00;;
75025;SDS011;63591;50.080;8.286;2022-11-14T08:20:24;14.88;;;8.80;;
75025;SDS011;63591;50.080;8.286;2022-11-14T08:22:51;13.32;;;8.25;;
75025;SDS011;63591;50.080;8.286;2022-11-14T08:25:17;14.20;;;8.88;;
75025;SDS011;63591;50.080;8.286;2022-11-14T08:27:42;14.40;;;8.53;;
75025;SDS011;63591;50.080;8.286;2022-11-14T08:30:07;12.57;;;8.27;;
75025;SDS011;63591;50.080;8.286;2022-11-14T08:32:33;16.07;;;9.00;;
75025;SDS011;63591;50.080;8.286;2022-11-14T08:34:59;15.68;;;9.23;;
75025;SDS011;63591;50.080;8.286;2022-11-14T08:37:24;13.87;;;8.67;;
75025;SDS011;63591;50.080;8.286;2022-11-14T08:39:49;16.93;;;9.63;;
75025;SDS011;63591;50.080;8.286;2022-11-14T08:42:14;15.03;;;9.77;;
75025;SDS011;63591;50.080;8.286;2022-11-14T08:44:40;15.37;;;8.53;;
75025;SDS011;63591;50.080;8.286;2022-11-14T08:47:05;16.00;;;9.50;;
75025;SDS011;63591;50.080;8.286;2022-11-14T08:49:30;16.77;;;9.97;;
75025;SDS011;63591;50.080;8.286;2022-11-14T08:51:56;15.27;;;9.40;;
75025;SDS011;63591;50.080;8.286;2022-11-14T08:54:21;15.20;;;8.93;;
75025;SDS011;63591;50.080;8.286;2022-11-14T08:56:46;14.67;;;8.93;;
75025;SDS011;63591;50.080;8.286;2022-11-14T08:59:11;15.17;;;8.90;;
75025;SDS011;63591;50.080;8.286;2022-11-14T09:01:37;15.57;;;8.77;;
75025;SDS011;63591;50.080;8.286;2022-11-14T09:04:02;16.37;;;9.70;;
75025;SDS011;63591;50.080;8.286;2022-11-14T09:06:28;16.23;;;8.77;;
75025;SDS011;63591;50.080;8.286;2022-11-14T09:08:53;17.93;;;9.23;;
75025;SDS011;63591;50.080;8.286;2022-11-14T09:11:19;14.57;;;8.67;;
75025;SDS011;63591;50.080;8.286;2022-11-14T09:13:44;16.13;;;8.63;;
75025;SDS011;63591;50.080;8.286;2022-11-14T09:16:10;14.30;;;8.35;;
75025;SDS011;63591;50.080;8.286;2022-11-14T09:18:35;17.83;;;8.80;;
75025;SDS011;63591;50.080;8.286;2022-11-14T09:21:05;15.23;;;8.43;;
75025;SDS011;63591;50.080;8.286;2022-11-14T09:23:32;16.75;;;9.25;;
75025;SDS011;63591;50.080;8.286;2022-11-14T09:26:02;15.93;;;8.20;;
75025;SDS011;63591;50.080;8.286;2022-11-14T09:28:28;14.95;;;9.00;;
75025;SDS011;63591;50.080;8.286;2022-11-14T09:30:58;14.37;;;8.60;;
75025;SDS011;63591;50.080;8.286;2022-11-14T09:33:26;15.05;;;8.85;;
75025;SDS011;63591;50.080;8.286;2022-11-14T09:35:56;15.83;;;8.83;;
75025;SDS011;63591;50.080;8.286;2022-11-14T09:38:25;17.70;;;9.32;;
75025;SDS011;63591;50.080;8.286;2022-11-14T09:46:11;14.80;;;8.45;;
75025;SDS011;63591;50.080;8.286;2022-11-14T09:48:50;17.05;;;9.13;;
75025;SDS011;63591;50.080;8.286;2022-11-14T09:51:23;13.80;;;8.02;;
75025;SDS011;63591;50.080;8.286;2022-11-14T09:53:58;15.48;;;8.70;;
75025;SDS011;63591;50.080;8.286;2022-11-14T09:56:34;16.55;;;8.65;;
75025;SDS011;63591;50.080;8.286;2022-11-14T09:59:00;12.80;;;7.43;;
75025;SDS011;63591;50.080;8.286;2022-11-14T10:04:39;13.52;;;7.80;;
75025;SDS011;63591;50.080;8.286;2022-11-14T10:10:24;12.98;;;7.82;;
75025;SDS011;63591;50.080;8.286;2022-11-14T10:13:25;14.15;;;8.00;;
75025;SDS011;63591;50.080;8.286;2022-11-14T10:24:30;13.43;;;8.00;;
75025;SDS011;63591;50.080;8.286;2022-11-14T10:27:30;14.48;;;8.45;;
75025;SDS011;63591;50.080;8.286;2022-11-14T10:35:42;14.57;;;8.20;;
75025;SDS011;63591;50.080;8.286;2022-11-14T10:40:49;13.30;;;8.05;;
75025;SDS011;63591;50.080;8.286;2022-11-14T10:43:29;12.80;;;7.55;;
75025;SDS011;63591;50.080;8.286;2022-11-14T10:46:06;14.90;;;8.13;;
75025;SDS011;63591;50.080;8.286;2022-11-14T10:48:42;13.07;;;7.85;;
75025;SDS011;63591;50.080;8.286;2022-11-14T10:51:25;13.27;;;7.63;;
75025;SDS011;63591;50.080;8.286;2022-11-14T10:53:58;13.05;;;7.25;;
75025;SDS011;63591;50.080;8.286;2022-11-14T10:56:29;12.02;;;7.20;;
75025;SDS011;63591;50.080;8.286;2022-11-14T10:58:55;14.50;;;7.73;;
75025;SDS011;63591;50.080;8.286;2022-11-14T11:06:52;12.88;;;7.03;;
75025;SDS011;63591;50.080;8.286;2022-11-14T11:12:08;12.68;;;7.30;;
75025;SDS011;63591;50.080;8.286;2022-11-14T11:14:40;12.40;;;6.70;;
75025;SDS011;63591;50.080;8.286;2022-11-14T11:17:19;12.55;;;6.97;;
75025;SDS011;63591;50.080;8.286;2022-11-14T11:19:46;12.35;;;7.00;;
75025;SDS011;63591;50.080;8.286;2022-11-14T11:25:01;12.20;;;6.80;;
75025;SDS011;63591;50.080;8.286;2022-11-14T11:27:28;11.57;;;7.13;;
75025;SDS011;63591;50.080;8.286;2022-11-14T11:30:08;11.48;;;6.53;;
75025;SDS011;63591;50.080;8.286;2022-11-14T11:32:43;10.57;;;5.87;;
75025;SDS011;63591;50.080;8.286;2022-11-14T11:35:12;10.32;;;6.57;;
75025;SDS011;63591;50.080;8.286;2022-11-14T11:40:18;10.20;;;5.95;;
75025;SDS011;63591;50.080;8.286;2022-11-14T11:45:24;11.50;;;6.65;;
75025;SDS011;63591;50.080;8.286;2022-11-14T11:48:14;11.55;;;6.53;;
75025;SDS011;63591;50.080;8.286;2022-11-14T11:50:45;10.73;;;6.55;;
75025;SDS011;63591;50.080;8.286;2022-11-14T11:55:52;11.82;;;6.50;;
75025;SDS011;63591;50.080;8.286;2022-11-14T12:00:55;11.40;;;6.78;;
75025;SDS011;63591;50.080;8.286;2022-11-14T12:03:20;12.73;;;7.10;;
75025;SDS011;63591;50.080;8.286;2022-11-14T12:06:02;10.65;;;6.30;;
75025;SDS011;63591;50.080;8.286;2022-11-14T12:11:36;11.82;;;6.88;;
75025;SDS011;63591;50.080;8.286;2022-11-14T12:14:11;10.88;;;6.32;;
75025;SDS011;63591;50.080;8.286;2022-11-14T12:19:46;10.48;;;5.97;;
75025;SDS011;63591;50.080;8.286;2022-11-14T12:30:55;10.07;;;5.90;;
75025;SDS011;63591;50.080;8.286;2022-11-14T12:36:03;11.33;;;5.60;;
75025;SDS011;63591;50.080;8.286;2022-11-14T12:38:45;9.98;;;5.90;;
75025;SDS011;63591;50.080;8.286;2022-11-14T12:41:20;10.35;;;5.80;;
75025;SDS011;63591;50.080;8.286;2022-11-14T12:43:52;9.23;;;5.55;;
75025;SDS011;63591;50.080;8.286;2022-11-14T12:52:39;7.93;;;4.93;;
75025;SDS011;63591;50.080;8.286;2022-11-14T12:57:43;8.27;;;4.75;;
75025;SDS011;63591;50.080;8.286;2022-11-14T13:00:16;9.68;;;5.50;;
75025;SDS011;63591;50.080;8.286;2022-11-14T13:05:37;9.85;;;5.82;;
75025;SDS011;63591;50.080;8.286;2022-11-14T13:14:18;9.35;;;5.05;;
75025;SDS011;63591;50.080;8.286;2022-11-14T13:19:56;9.45;;;5.30;;
75025;SDS011;63591;50.080;8.286;2022-11-14T13:22:40;8.60;;;5.28;;
75025;SDS011;63591;50.080;8.286;2022-11-14T13:27:34;9.70;;;5.57;;
75025;SDS011;63591;50.080;8.286;2022-11-14T13:30:00;11.30;;;5.70;;
75025;SDS011;63591;50.080;8.286;2022-11-14T13:35:22;9.38;;;5.22;;
75025;SDS011;63591;50.080;8.286;2022-11-14T13:38:02;9.85;;;5.28;;
75025;SDS011;63591;50.080;8.286;2022-11-14T13:40:58;8.87;;;5.03;;
75025;SDS011;63591;50.080;8.286;2022-11-14T13:49:02;9.07;;;5.10;;
75025;SDS011;63591;50.080;8.286;2022-11-14T13:51:39;9.63;;;5.25;;
75025;SDS011;63591;50.080;8.286;2022-11-14T13:54:14;9.40;;;5.10;;
75025;SDS011;63591;50.080;8.286;2022-11-14T14:04:51;8.88;;;5.15;;
75025;SDS011;63591;50.080;8.286;2022-11-14T14:12:37;8.73;;;4.82;;
75025;SDS011;63591;50.080;8.286;2022-11-14T14:15:20;9.20;;;5.10;;
75025;SDS011;63591;50.080;8.286;2022-11-14T14:20:43;8.55;;;4.60;;
75025;SDS011;63591;50.080;8.286;2022-11-14T14:23:31;8.75;;;4.82;;
75025;SDS011;63591;50.080;8.286;2022-11-14T14:26:06;8.38;;;4.53;;
75025;SDS011;63591;50.080;8.286;2022-11-14T14:28:48;9.07;;;4.97;;
75025;SDS011;63591;50.080;8.286;2022-11-14T14:31:21;8.18;;;4.78;;
75025;SDS011;63591;50.080;8.286;2022-11-14T14:33:48;9.05;;;4.82;;
75025;SDS011;63591;50.080;8.286;2022-11-14T14:36:25;8.95;;;5.00;;
75025;SDS011;63591;50.080;8.286;2022-11-14T14:41:55;10.98;;;5.13;;
75025;SDS011;63591;50.080;8.286;2022-11-14T14:44:33;9.00;;;5.28;;
75025;SDS011;63591;50.080;8.286;2022-11-14T14:47:15;9.25;;;5.05;;
75025;SDS011;63591;50.080;8.286;2022-11-14T14:49:56;9.13;;;4.95;;
75025;SDS011;63591;50.080;8.286;2022-11-14T14:52:27;8.43;;;4.70;;
75025;SDS011;63591;50.080;8.286;2022-11-14T14:55:00;8.52;;;5.05;;
75025;SDS011;63591;50.080;8.286;2022-11-14T14:57:27;10.52;;;4.90;;
75025;SDS011;63591;50.080;8.286;2022-11-14T15:00:01;9.73;;;5.10;;
75025;SDS011;63591;50.080;8.286;2022-11-14T15:02:43;9.50;;;5.45;;
75025;SDS011;63591;50.080;8.286;2022-11-14T15:05:09;9.65;;;5.10;;
75025;SDS011;63591;50.080;8.286;2022-11-14T15:07:34;8.67;;;4.90;;
75025;SDS011;63591;50.080;8.286;2022-11-14T15:10:03;13.57;;;5.15;;
75025;SDS011;63591;50.080;8.286;2022-11-14T15:12:29;8.57;;;4.65;;
75025;SDS011;63591;50.080;8.286;2022-11-14T15:14:56;7.30;;;4.20;;
75025;SDS011;63591;50.080;8.286;2022-11-14T15:17:24;7.97;;;4.45;;
75025;SDS011;63591;50.080;8.286;2022-11-14T15:19:50;8.25;;;4.30;;
75025;SDS011;63591;50.080;8.286;2022-11-14T15:24:43;8.80;;;5.07;;
75025;SDS011;63591;50.080;8.286;2022-11-14T15:27:16;11.00;;;4.80;;
75025;SDS011;63591;50.080;8.286;2022-11-14T15:29:44;8.00;;;4.68;;
75025;SDS011;63591;50.080;8.286;2022-11-14T15:32:16;8.27;;;4.60;;
75025;SDS011;63591;50.080;8.286;2022-11-14T15:35:05;10.20;;;4.72;;
75025;SDS011;63591;50.080;8.286;2022-11-14T15:37:32;8.37;;;4.30;;
75025;SDS011;63591;50.080;8.286;2022-11-14T15:42:45;9.30;;;4.80;;
75025;SDS011;63591;50.080;8.286;2022-11-14T15:45:27;8.27;;;4.57;;
75025;SDS011;63591;50.080;8.286;2022-11-14T15:48:02;8.15;;;4.57;;
75025;SDS011;63591;50.080;8.286;2022-11-14T15:50:38;9.80;;;4.70;;
75025;SDS011;63591;50.080;8.286;2022-11-14T15:53:05;8.20;;;4.60;;
75025;SDS011;63591;50.080;8.286;2022-11-14T15:55:40;8.65;;;4.70;;
75025;SDS011;63591;50.080;8.286;2022-11-14T15:58:09;8.57;;;4.80;;
75025;SDS011;63591;50.080;8.286;2022-11-14T16:00:43;9.25;;;4.55;;
75025;SDS011;63591;50.080;8.286;2022-11-14T16:03:13;9.18;;;5.30;;
75025;SDS011;63591;50.080;8.286;2022-11-14T16:05:41;8.83;;;4.70;;
75025;SDS011;63591;50.080;8.286;2022-11-14T16:08:08;9.90;;;4.70;;
75025;SDS011;63591;50.080;8.286;2022-11-14T16:10:35;7.80;;;4.53;;
75025;SDS011;63591;50.080;8.286;2022-11-14T16:13:00;8.20;;;4.25;;
75025;SDS011;63591;50.080;8.286;2022-11-14T16:15:25;11.45;;;5.38;;
75025;SDS011;63591;50.080;8.286;2022-11-14T16:17:50;8.90;;;4.93;;
75025;SDS011;63591;50.080;8.286;2022-11-14T16:20:20;7.87;;;4.60;;
75025;SDS011;63591;50.080;8.286;2022-11-14T16:22:52;8.77;;;4.85;;
75025;SDS011;63591;50.080;8.286;2022-11-14T16:25:20;8.67;;;4.90;;
75025;SDS011;63591;50.080;8.286;2022-11-14T16:27:53;9.02;;;4.97;;
75025;SDS011;63591;50.080;8.286;2022-11-14T16:30:19;8.68;;;4.72;;
75025;SDS011;63591;50.080;8.286;2022-11-14T16:32:46;8.48;;;5.00;;
75025;SDS011;63591;50.080;8.286;2022-11-14T16:35:14;10.30;;;4.93;;
75025;SDS011;63591;50.080;8.286;2022-11-14T16:37:41;8.50;;;4.70;;
75025;SDS011;63591;50.080;8.286;2022-11-14T16:40:10;8.57;;;4.93;;
75025;SDS011;63591;50.080;8.286;2022-11-14T16:42:39;8.48;;;4.60;;
75025;SDS011;63591;50.080;8.286;2022-11-14T16:45:04;10.33;;;5.07;;